Terminal Aerodrome Forecast
Issued by NWS

Home | Current Version | Previous Version | Text Only | Print | Product List | Glossary On
Versions: 1 2 3 4 5 6 7 8 9 10 11 12 13 14 15 16 17 18 19 20 21 22 23 24 25 26 27 28
000
FTUS41 KBOX 260531
TAFBED
TAF
KBED 260531Z 2606/2706 02007KT 2SM SHRA BR OVC004
     FM261000 06006KT 1SM SHRA BR OVC003
     FM261200 07006KT 1SM -SHRA BR OVC003
     FM261600 07006KT 3SM BR VCSH OVC010
     FM261800 08005KT P6SM VCSH OVC010
     FM262300 06005KT 1 1/2SM -DZ BR OVC010=

USA.gov is the U.S. government's official web portal to all federal, state and local government web resources and services.